Time;durP1;ratioP1;P1;durP2;ratioP2;P2;SDS_P1;SDS_P2;PMS_P1;PMS_P2;Temp;Humidity;BMP_temperature;BMP_pressure;BME280_temperature;BME280_humidity;BME280_pressure;Samples;Min_cycle;Max_cycle;Signal;HPM_P1;HPM_P2
2021/06/03 00:01:04;;;;;;;;;;;;;;;12.69;65.44;100359.41;3829092;28;34601;31
2021/06/03 00:03:43;;;;;;;;;;;;;;;12.51;65.82;100365.19;4531994;28;33059;-88
2021/06/03 00:06:55;;;;;;;;;;;;;;;12.48;65.53;100365.50;4348179;28;35179;-89
2021/06/03 00:09:32;;;;;;;;;;;;;;;12.66;64.52;100361.63;4338059;28;32727;-90
2021/06/03 00:12:15;;;;;;;;;;;;;;;12.54;64.91;100372.94;4390350;28;34514;31
2021/06/03 00:14:50;;;;;;;;;;;;;;;12.24;66.05;100373.91;4376947;28;33512;-90
2021/06/03 00:17:29;;;;;;;;;;;;;;;12.05;67.14;100369.81;4481954;28;34022;-90
2021/06/03 00:20:17;;;;;;;;;;;;;;;12.31;66.11;100369.44;4311575;28;32379;31
2021/06/03 00:23:33;;;;;;;;;;;;;;;12.51;65.20;100369.75;4195535;28;35689;31
2021/06/03 00:26:30;;;;;;;;;;;;;;;12.20;66.69;100370.72;4364610;28;33787;31
2021/06/03 00:29:16;;;;;;;;;;;;;;;11.97;67.26;100376.97;4400565;28;33803;31
2021/06/03 00:31:50;;;;;;;;;;;;;;;11.99;66.94;100382.22;4224198;28;33501;-90
2021/06/03 00:40:27;;;;;;;;;;;;;;;12.31;66.11;100385.69;4285103;28;35347;-90
2021/06/03 00:46:08;;;;;;;;;;;;;;;12.48;65.67;100376.34;4329465;28;19994;-91
2021/06/03 00:52:00;;;;;;;;;;;;;;;12.39;66.14;100393.75;4418607;28;35876;-91
2021/06/03 00:58:15;;;;;;;;;;;;;;;12.45;66.09;100387.56;4113748;28;34355;-92
2021/06/03 01:00:54;;;;;;;;;;;;;;;12.47;66.12;100390.97;4390152;28;32251;-89
2021/06/03 01:06:37;;;;;;;;;;;;;;;12.67;66.00;100387.72;4193245;28;36109;-90
2021/06/03 01:09:30;;;;;;;;;;;;;;;12.71;66.08;100394.47;4292908;28;33827;-90
2021/06/03 01:12:19;;;;;;;;;;;;;;;12.69;66.25;100394.66;4314932;28;33616;31
2021/06/03 01:14:53;;;;;;;;;;;;;;;12.81;66.14;100400.44;4263963;28;33810;-91
2021/06/03 01:17:27;;;;;;;;;;;;;;;12.89;65.73;100392.22;4441267;28;33661;-90
2021/06/03 01:20:01;;;;;;;;;;;;;;;12.65;66.24;100396.03;4396076;28;32425;-90
2021/06/03 01:22:45;;;;;;;;;;;;;;;12.62;66.73;100393.69;4278847;28;31802;-91
2021/06/03 01:25:28;;;;;;;;;;;;;;;12.64;66.89;100396.22;4584089;28;35742;31
2021/06/03 01:32:30;;;;;;;;;;;;;;;12.72;67.15;100404.25;4086304;28;33791;-90
2021/06/03 01:35:23;;;;;;;;;;;;;;;12.86;66.55;100403.44;4324949;28;30927;-90
2021/06/03 01:37:56;;;;;;;;;;;;;;;12.98;66.15;100403.81;4583604;28;34174;-91
2021/06/03 01:40:31;;;;;;;;;;;;;;;13.02;66.04;100407.00;4327464;28;32919;-89
2021/06/03 01:43:10;;;;;;;;;;;;;;;13.01;65.93;100408.03;4449675;28;35960;-90
2021/06/03 01:46:31;;;;;;;;;;;;;;;12.93;66.26;100406.25;4480291;28;35789;31
2021/06/03 01:49:05;;;;;;;;;;;;;;;12.87;66.20;100402.44;4415351;28;33594;-91
2021/06/03 01:54:48;;;;;;;;;;;;;;;13.01;64.80;100405.34;3997757;28;36748;-91
2021/06/03 01:57:52;;;;;;;;;;;;;;;13.02;64.70;100401.56;4499573;26;1271742;-90
2021/06/03 02:00:32;;;;;;;;;;;;;;;12.68;65.60;100402.97;4630953;26;33059;-90
2021/06/03 02:03:11;;;;;;;;;;;;;;;12.56;66.13;100413.44;4622720;26;31993;-90
2021/06/03 02:08:47;;;;;;;;;;;;;;;12.56;65.80;100420.69;4457737;27;35408;-90
2021/06/03 02:11:45;;;;;;;;;;;;;;;12.62;65.62;100414.53;4683138;26;32902;-92
2021/06/03 02:17:41;;;;;;;;;;;;;;;12.63;65.32;100410.81;4411664;27;32515;-91
2021/06/03 02:20:21;;;;;;;;;;;;;;;12.62;65.08;100415.41;4394909;27;34362;-89
2021/06/03 02:23:08;;;;;;;;;;;;;;;12.50;65.81;100423.13;4634265;27;31517;31
2021/06/03 02:25:49;;;;;;;;;;;;;;;12.29;66.53;100420.25;4627262;27;33057;-90
2021/06/03 02:29:11;;;;;;;;;;;;;;;12.53;65.88;100428.19;4699060;27;19966;31
2021/06/03 02:31:59;;;;;;;;;;;;;;;12.53;66.07;100422.75;4541928;27;33322;-90
2021/06/03 02:38:16;;;;;;;;;;;;;;;12.68;65.77;100425.50;4323431;27;34494;-91
2021/06/03 02:40:51;;;;;;;;;;;;;;;12.76;65.88;100421.84;4519610;27;35046;-90
2021/06/03 02:43:26;;;;;;;;;;;;;;;12.88;65.46;100414.94;4781953;27;33172;-90
2021/06/03 02:52:41;;;;;;;;;;;;;;;12.75;66.40;100432.91;4437439;27;34483;-89
2021/06/03 02:55:23;;;;;;;;;;;;;;;12.84;66.28;100435.34;4424186;27;35146;31
2021/06/03 03:01:11;;;;;;;;;;;;;;;13.04;65.99;100437.53;4369753;27;37286;-89
2021/06/03 03:06:54;;;;;;;;;;;;;;;12.98;66.04;100432.81;4337924;27;36168;-89
2021/06/03 03:09:36;;;;;;;;;;;;;;;13.07;65.94;100437.16;4470039;27;31431;-88
2021/06/03 03:12:24;;;;;;;;;;;;;;;12.94;66.36;100445.09;4431499;27;30829;-91
2021/06/03 03:15:18;;;;;;;;;;;;;;;13.08;66.29;100444.22;4374039;27;33748;-90
2021/06/03 03:18:09;;;;;;;;;;;;;;;13.23;66.05;100445.09;4385399;27;33812;31
2021/06/03 03:20:44;;;;;;;;;;;;;;;13.27;66.23;100445.56;4293986;27;33615;-90
2021/06/03 03:26:56;;;;;;;;;;;;;;;13.38;66.34;100446.97;4495601;27;33773;31
2021/06/03 03:29:49;;;;;;;;;;;;;;;13.42;66.26;100451.00;4526093;27;33595;31
2021/06/03 03:32:25;;;;;;;;;;;;;;;13.37;66.74;100453.47;4558266;27;32175;31
2021/06/03 03:35:01;;;;;;;;;;;;;;;13.52;66.47;100454.28;4468984;27;34469;-90
2021/06/03 03:38:01;;;;;;;;;;;;;;;13.68;66.12;100452.34;4394531;27;33305;31
2021/06/03 03:41:11;;;;;;;;;;;;;;;13.70;66.18;100461.19;4426826;27;35495;-89
2021/06/03 03:47:43;;;;;;;;;;;;;;;13.50;67.02;100461.78;4472336;27;33994;31
2021/06/03 03:50:20;;;;;;;;;;;;;;;13.70;66.70;100469.34;4406967;27;33922;-90
2021/06/03 04:03:05;;;;;;;;;;;;;;;14.21;64.60;100469.25;4276690;27;34718;-90
2021/06/03 04:06:06;;;;;;;;;;;;;;;14.08;65.76;100475.38;4569824;27;33567;-90
2021/06/03 04:08:47;;;;;;;;;;;;;;;14.24;65.26;100463.44;4699041;27;33239;31
2021/06/03 04:14:33;;;;;;;;;;;;;;;14.44;65.06;100476.38;4585994;27;33313;-90
2021/06/03 04:18:02;;;;;;;;;;;;;;;14.70;64.92;100472.22;4656502;27;19954;-90
2021/06/03 04:24:44;;;;;;;;;;;;;;;14.94;64.99;100473.66;4510877;27;33404;31
2021/06/03 04:27:51;;;;;;;;;;;;;;;15.10;64.94;100472.53;4590422;27;32883;31
2021/06/03 04:30:42;;;;;;;;;;;;;;;15.51;64.12;100469.84;4559566;27;33561;31
2021/06/03 04:39:57;;;;;;;;;;;;;;;16.03;62.15;100473.00;4341380;27;34791;-90
2021/06/03 04:43:09;;;;;;;;;;;;;;;16.08;60.68;100480.56;4444081;27;35438;-89
2021/06/03 04:46:04;;;;;;;;;;;;;;;16.39;58.60;100482.72;4378037;27;34617;31
2021/06/03 04:49:20;;;;;;;;;;;;;;;16.58;57.27;100477.50;4596796;27;33932;31
2021/06/03 04:52:25;;;;;;;;;;;;;;;16.83;56.69;100469.50;4745608;27;34481;31
2021/06/03 05:02:13;;;;;;;;;;;;;;;16.74;58.33;100477.06;4642951;27;33080;-90
2021/06/03 05:04:53;;;;;;;;;;;;;;;16.75;56.88;100480.63;4712046;27;33920;31
2021/06/03 05:07:28;;;;;;;;;;;;;;;16.75;56.19;100478.75;4422239;27;32380;-90
2021/06/03 05:10:22;;;;;;;;;;;;;;;16.61;56.67;100484.44;4482378;27;33295;-89
2021/06/03 05:12:57;;;;;;;;;;;;;;;16.61;56.93;100482.53;4700324;27;33492;-89
2021/06/03 05:15:43;;;;;;;;;;;;;;;17.31;54.80;100479.34;4685308;27;32389;31
2021/06/03 05:18:16;;;;;;;;;;;;;;;17.70;53.36;100476.69;4490068;27;32585;-89
2021/06/03 05:21:03;;;;;;;;;;;;;;;17.68;51.11;100473.31;4597735;27;32992;31
2021/06/03 05:24:00;;;;;;;;;;;;;;;17.95;50.21;100471.37;4462095;27;32277;-89
2021/06/03 05:26:58;;;;;;;;;;;;;;;17.99;49.91;100469.84;4386538;27;35801;-90
2021/06/03 05:29:38;;;;;;;;;;;;;;;18.22;49.33;100471.19;4516481;27;32761;-89
2021/06/03 05:32:37;;;;;;;;;;;;;;;18.25;50.77;100463.41;4465603;27;34228;-89
2021/06/03 05:35:13;;;;;;;;;;;;;;;18.15;48.89;100474.81;4596642;27;33974;-90
2021/06/03 05:37:48;;;;;;;;;;;;;;;18.37;47.36;100477.22;4580494;27;33836;31
2021/06/03 05:40:32;;;;;;;;;;;;;;;18.47;47.22;100480.28;4311766;27;32274;31
2021/06/03 05:43:32;;;;;;;;;;;;;;;18.57;48.14;100481.69;4680172;27;32817;31
2021/06/03 05:46:31;;;;;;;;;;;;;;;18.27;45.24;100482.31;4580445;27;34823;31
2021/06/03 05:52:20;;;;;;;;;;;;;;;18.63;45.44;100483.53;4364503;27;20063;-95
2021/06/03 05:55:12;;;;;;;;;;;;;;;18.61;44.32;100486.50;4345378;27;9134891;31
2021/06/03 05:58:02;;;;;;;;;;;;;;;18.58;44.54;100480.63;4572132;27;32692;-94
2021/06/03 06:00:35;;;;;;;;;;;;;;;18.78;41.07;100491.41;4571549;27;33743;-96
2021/06/03 06:03:47;;;;;;;;;;;;;;;18.96;41.67;100491.50;4330091;32;20039;-96
2021/06/03 06:06:24;;;;;;;;;;;;;;;18.50;39.81;100492.69;4325622;32;34588;-88
2021/06/03 06:09:04;;;;;;;;;;;;;;;18.95;41.71;100494.47;4339729;32;33038;-96
2021/06/03 06:15:40;;;;;;;;;;;;;;;19.27;40.09;100497.13;4370470;27;20051;-87
2021/06/03 06:18:16;;;;;;;;;;;;;;;19.14;40.25;100507.13;4560009;27;34574;-89
2021/06/03 06:20:57;;;;;;;;;;;;;;;19.04;38.77;100504.91;4353122;32;32386;-90
2021/06/03 06:23:32;;;;;;;;;;;;;;;19.20;39.45;100505.41;4316167;33;34262;-87
2021/06/03 06:26:12;;;;;;;;;;;;;;;19.46;39.66;100501.56;4336240;33;35050;-93
2021/06/03 06:38:24;;;;;;;;;;;;;;;19.89;40.63;100502.53;4534880;27;33723;-88
2021/06/03 06:44:09;;;;;;;;;;;;;;;20.15;41.11;100509.59;4555051;27;32937;-87
2021/06/03 06:46:55;;;;;;;;;;;;;;;20.49;39.00;100504.44;4675115;27;34848;-87
2021/06/03 07:13:56;;;;;;;;;;;;;;;21.32;37.86;100518.31;4911693;27;19971;31
2021/06/03 07:20:34;;;;;;;;;;;;;;;21.83;36.57;100519.44;5137179;27;19987;31
2021/06/03 07:23:09;;;;;;;;;;;;;;;21.90;35.45;100512.97;4236685;33;32472;-89
2021/06/03 07:25:42;;;;;;;;;;;;;;;22.03;36.16;100524.50;4260345;33;33782;-90
2021/06/03 07:28:16;;;;;;;;;;;;;;;22.02;34.17;100520.09;4545343;27;34854;-96
2021/06/03 07:31:01;;;;;;;;;;;;;;;21.72;33.32;100522.22;4797520;27;33915;-88
2021/06/03 07:33:52;;;;;;;;;;;;;;;22.15;36.59;100524.47;4302825;33;32947;-91
2021/06/03 07:36:25;;;;;;;;;;;;;;;22.58;33.54;100529.72;4303678;33;33997;-90
2021/06/03 07:38:58;;;;;;;;;;;;;;;22.66;30.79;100523.78;4291767;33;35050;-89
2021/06/03 07:41:31;;;;;;;;;;;;;;;22.95;30.59;100524.56;4295524;33;33932;-90
2021/06/03 07:44:26;;;;;;;;;;;;;;;22.69;31.25;100531.53;4316230;33;33427;-96
2021/06/03 07:46:59;;;;;;;;;;;;;;;22.72;33.79;100526.41;4283685;33;33449;-89
2021/06/03 07:49:32;;;;;;;;;;;;;;;23.19;32.36;100530.75;4276241;33;36570;-89
2021/06/03 07:52:05;;;;;;;;;;;;;;;23.33;31.01;100528.47;4285389;33;33945;-89
2021/06/03 07:54:40;;;;;;;;;;;;;;;23.63;31.88;100527.22;4285720;33;32782;-90
2021/06/03 07:57:14;;;;;;;;;;;;;;;23.34;29.32;100532.06;4273850;33;33119;-90
2021/06/03 07:59:47;;;;;;;;;;;;;;;23.40;29.11;100531.87;4259255;33;34552;-95
2021/06/03 08:02:19;;;;;;;;;;;;;;;23.62;29.02;100523.66;4286105;33;33928;-91
2021/06/03 08:04:57;;;;;;;;;;;;;;;23.41;28.12;100525.28;4284732;33;32805;-90
2021/06/03 08:07:30;;;;;;;;;;;;;;;23.25;29.86;100523.41;4261004;33;34745;-91
2021/06/03 08:10:12;;;;;;;;;;;;;;;23.64;29.18;100526.16;4284608;33;32907;-92
2021/06/03 08:12:46;;;;;;;;;;;;;;;22.81;29.82;100534.22;4285688;33;33606;-91
2021/06/03 08:15:19;;;;;;;;;;;;;;;23.61;30.69;100532.19;4274195;33;32976;-91
2021/06/03 08:17:53;;;;;;;;;;;;;;;24.29;28.51;100531.91;4282851;33;35800;-91
2021/06/03 08:20:34;;;;;;;;;;;;;;;24.50;27.04;100527.44;4285797;33;34065;-91
2021/06/03 08:23:10;;;;;;;;;;;;;;;24.51;28.97;100526.34;4282599;33;34260;-91
2021/06/03 08:25:45;;;;;;;;;;;;;;;24.28;29.67;100524.72;4274506;33;34755;-91
2021/06/03 08:28:18;;;;;;;;;;;;;;;24.54;29.56;100533.28;4273546;33;33799;-91
2021/06/03 08:30:52;;;;;;;;;;;;;;;24.39;28.75;100533.97;4280130;33;36539;-92
2021/06/03 08:33:25;;;;;;;;;;;;;;;24.42;31.54;100536.22;4278676;33;33457;-91
2021/06/03 08:36:00;;;;;;;;;;;;;;;25.03;29.46;100538.72;4284527;33;33703;-92
2021/06/03 08:38:38;;;;;;;;;;;;;;;25.08;29.55;100532.41;4284103;33;34687;-91
2021/06/03 08:41:11;;;;;;;;;;;;;;;25.17;26.69;100528.84;4290523;33;34297;-92
2021/06/03 08:43:44;;;;;;;;;;;;;;;25.24;27.14;100533.31;4272041;33;33833;-93
2021/06/03 08:46:23;;;;;;;;;;;;;;;25.90;26.45;100533.72;4285208;33;32808;-93
2021/06/03 08:49:27;;;;;;;;;;;;;;;25.48;26.47;100533.78;4284746;33;35153;-95
2021/06/03 09:00:33;;;;;;;;;;;;;;;;;;;;;
2021/06/03 09:14:46;;;;;;;;;;;;;;;25.14;28.78;100523.84;4129740;34;20063;-96
2021/06/03 09:18:32;;;;;;;;;;;;;;;25.33;26.67;100515.16;4217202;28;35510;-96
2021/06/03 09:21:30;;;;;;;;;;;;;;;25.83;27.40;100510.97;4181497;34;33756;-96
2021/06/03 09:24:32;;;;;;;;;;;;;;;25.47;26.53;100516.34;4165668;34;20004;-89
2021/06/03 09:27:06;;;;;;;;;;;;;;;25.94;28.72;100516.56;4183647;34;33864;-95
2021/06/03 09:30:19;;;;;;;;;;;;;;;25.87;26.59;100505.75;4235718;28;32518;31
2021/06/03 09:32:55;;;;;;;;;;;;;;;26.26;28.62;100505.34;4205247;33;34296;-96
2021/06/03 09:39:39;;;;;;;;;;;;;;;27.15;24.84;100501.50;4828029;28;19978;-96
2021/06/03 09:42:28;;;;;;;;;;;;;;;27.23;26.47;100504.53;4168796;34;33971;-96
2021/06/03 09:46:01;;;;;;;;;;;;;;;27.31;25.05;100506.72;4369637;28;19991;-94
2021/06/03 09:48:54;;;;;;;;;;;;;;;27.50;27.68;100506.19;4245186;28;34418;-91
2021/06/03 09:51:38;;;;;;;;;;;;;;;27.72;27.04;100516.09;4079022;28;32425;-95
2021/06/03 09:54:16;;;;;;;;;;;;;;;27.88;26.14;100500.19;4248137;33;34094;-86
2021/06/03 09:57:08;;;;;;;;;;;;;;;27.31;24.48;100503.12;4283791;33;33677;-96
2021/06/03 10:00:02;;;;;;;;;;;;;;;27.06;24.38;100501.25;4269322;33;32905;-96
2021/06/03 10:03:05;;;;;;;;;;;;;;;;;;;;;
2021/06/03 10:06:03;;;;;;;;;;;;;;;27.04;25.48;100498.75;4508439;28;33012;-93
2021/06/03 10:11:49;;;;;;;;;;;;;;;27.18;25.44;100493.44;4247577;33;32238;-91
2021/06/03 10:14:26;;;;;;;;;;;;;;;27.25;24.89;100495.94;4301905;28;34071;-96
2021/06/03 10:17:19;;;;;;;;;;;;;;;27.37;26.31;100481.78;4396092;28;20121;-90
2021/06/03 10:23:29;;;;;;;;;;;;;;;27.16;26.32;100480.94;4277617;28;34145;-96
2021/06/03 10:26:10;;;;;;;;;;;;;;;27.05;25.27;100480.16;4382617;28;32455;-94
2021/06/03 10:29:12;;;;;;;;;;;;;;;27.00;27.94;100472.66;4491613;28;30866;-94
2021/06/03 10:32:03;;;;;;;;;;;;;;;27.24;26.23;100480.41;4455313;28;35038;31
2021/06/03 10:34:50;;;;;;;;;;;;;;;27.27;26.02;100471.50;4564224;28;34682;-93
2021/06/03 10:37:44;;;;;;;;;;;;;;;27.52;25.29;100462.31;4404485;28;33058;-94
2021/06/03 10:40:43;;;;;;;;;;;;;;;28.40;27.86;100468.22;4381352;28;33999;-95
2021/06/03 10:43:48;;;;;;;;;;;;;;;28.85;25.26;100455.09;4275389;33;33676;-96
2021/06/03 10:46:35;;;;;;;;;;;;;;;29.21;25.58;100465.06;4255306;33;32455;-95
2021/06/03 10:49:21;;;;;;;;;;;;;;;29.58;25.56;100460.69;4286676;33;33278;-90
2021/06/03 10:52:08;;;;;;;;;;;;;;;29.89;24.82;100465.91;4504528;27;35295;31
2021/06/03 10:54:59;;;;;;;;;;;;;;;30.09;23.03;100464.78;4723851;27;34406;31
2021/06/03 10:57:55;;;;;;;;;;;;;;;29.08;23.00;100462.94;4321292;28;34637;-91
2021/06/03 11:00:31;;;;;;;;;;;;;;;29.86;27.38;100455.38;4442245;27;33108;-90
2021/06/03 11:03:06;;;;;;;;;;;;;;;30.51;26.91;100462.22;4556354;27;32213;-89
2021/06/03 11:12:24;;;;;;;;;;;;;;;29.76;25.54;100459.06;4570701;27;33274;-90
2021/06/03 11:15:31;;;;;;;;;;;;;;;29.57;25.73;100464.63;4323645;27;37082;-89
2021/06/03 11:18:13;;;;;;;;;;;;;;;29.09;23.41;100459.00;4326470;28;34750;-96
2021/06/03 11:21:33;;;;;;;;;;;;;;;30.00;23.85;100456.28;4601858;27;19952;-90
2021/06/03 11:24:15;;;;;;;;;;;;;;;30.40;27.73;100450.37;4300171;33;33157;-90
2021/06/03 11:29:47;;;;;;;;;;;;;;;29.91;27.97;100446.94;4289495;33;34479;-90
2021/06/03 11:32:35;;;;;;;;;;;;;;;30.48;25.64;100446.94;4341732;27;33828;31
2021/06/03 11:35:12;;;;;;;;;;;;;;;30.19;22.83;100453.47;4517280;27;32509;-91
2021/06/03 11:44:35;;;;;;;;;;;;;;;29.06;23.83;100439.00;4595389;27;20007;31
2021/06/03 11:47:37;;;;;;;;;;;;;;;28.99;26.75;100438.53;4455925;27;21374;-90
2021/06/03 11:50:14;;;;;;;;;;;;;;;29.27;24.68;100440.75;4447401;28;32774;-93
2021/06/03 11:56:58;;;;;;;;;;;;;;;29.85;25.13;100437.00;4569241;27;33470;-91
2021/06/03 12:00:15;;;;;;;;;;;;;;;29.99;23.13;100426.75;4322242;27;33389;-91
2021/06/03 12:02:48;;;;;;;;;;;;;;;30.09;23.26;100426.63;4276875;33;34094;-91
2021/06/03 12:05:22;;;;;;;;;;;;;;;29.73;23.69;100429.03;4311272;28;34749;-90
2021/06/03 12:07:55;;;;;;;;;;;;;;;29.96;22.62;100416.22;4278949;33;33669;-90
2021/06/03 12:10:31;;;;;;;;;;;;;;;30.81;24.59;100425.44;4492889;27;34100;-90
2021/06/03 12:13:15;;;;;;;;;;;;;;;30.34;22.58;100429.28;4301553;33;32950;-91
2021/06/03 12:16:00;;;;;;;;;;;;;;;30.34;22.22;100427.31;4437890;28;35168;-91
2021/06/03 12:18:34;;;;;;;;;;;;;;;30.99;28.03;100425.72;4424140;28;35137;-92
2021/06/03 12:21:10;;;;;;;;;;;;;;;31.28;20.77;100416.22;4408212;28;31937;-93
2021/06/03 12:26:48;;;;;;;;;;;;;;;31.57;23.00;100406.69;4282507;33;32297;-96
2021/06/03 12:29:41;;;;;;;;;;;;;;;30.98;21.70;100405.34;4304358;33;19997;-92
2021/06/03 12:32:16;;;;;;;;;;;;;;;30.67;22.31;100402.25;4304985;33;33132;-91
2021/06/03 12:34:57;;;;;;;;;;;;;;;30.02;24.05;100400.28;4342779;28;33733;-92
2021/06/03 12:37:32;;;;;;;;;;;;;;;29.84;24.54;100401.94;4298322;33;33852;-92
2021/06/03 12:40:22;;;;;;;;;;;;;;;29.56;24.59;100407.28;4290955;33;33633;-91
2021/06/03 12:43:15;;;;;;;;;;;;;;;29.69;26.45;100405.72;4255764;33;32218;-96
2021/06/03 12:45:54;;;;;;;;;;;;;;;30.54;23.55;100398.31;4250156;33;32967;-96
2021/06/03 12:49:09;;;;;;;;;;;;;;;30.18;23.75;100395.25;4272889;28;33848;-96
2021/06/03 12:52:10;;;;;;;;;;;;;;;31.19;24.77;100393.78;4254570;33;33611;-93
2021/06/03 12:55:00;;;;;;;;;;;;;;;31.57;25.01;100389.94;4248441;33;32659;-96
2021/06/03 12:57:38;;;;;;;;;;;;;;;31.85;23.42;100390.69;4248563;33;34084;-95
2021/06/03 13:00:15;;;;;;;;;;;;;;;31.84;22.98;100389.87;4265922;33;33577;-96
2021/06/03 13:03:16;;;;;;;;;;;;;;;31.61;22.24;100385.38;4270717;33;36473;-93
2021/06/03 13:05:51;;;;;;;;;;;;;;;31.71;21.87;100385.16;4282746;33;31908;-96
2021/06/03 13:08:25;;;;;;;;;;;;;;;30.94;21.43;100392.28;4271077;33;32369;-94
2021/06/03 13:11:38;;;;;;;;;;;;;;;31.97;23.52;100396.53;4272332;33;33652;-94
2021/06/03 13:14:14;;;;;;;;;;;;;;;32.31;25.78;100386.81;4276310;33;32628;-94
2021/06/03 13:16:51;;;;;;;;;;;;;;;31.84;22.19;100389.03;4280713;33;33353;-93
2021/06/03 13:19:24;;;;;;;;;;;;;;;31.92;22.89;100385.50;4251668;33;34228;-96
2021/06/03 13:22:20;;;;;;;;;;;;;;;31.71;22.52;100387.94;4251889;33;34110;-95
2021/06/03 13:25:21;;;;;;;;;;;;;;;31.05;22.53;100396.56;4273730;33;34222;-94
2021/06/03 13:27:55;;;;;;;;;;;;;;;30.79;23.44;100390.59;4235404;33;33512;-93
2021/06/03 13:30:29;;;;;;;;;;;;;;;30.26;24.92;100392.63;4249262;33;35818;-94
2021/06/03 13:33:12;;;;;;;;;;;;;;;30.89;24.75;100397.97;4285608;27;34035;-91
2021/06/03 13:35:49;;;;;;;;;;;;;;;30.76;22.70;100382.84;4280877;33;34651;-91
2021/06/03 13:38:22;;;;;;;;;;;;;;;30.79;23.65;100377.50;4269366;33;33600;-96
2021/06/03 13:40:56;;;;;;;;;;;;;;;31.05;23.14;100377.03;4269511;33;33862;-91
2021/06/03 13:43:33;;;;;;;;;;;;;;;31.51;24.12;100370.47;4285243;33;34012;-96
2021/06/03 13:49:37;;;;;;;;;;;;;;;32.21;24.10;100375.87;4286228;33;20040;-91
2021/06/03 13:52:19;;;;;;;;;;;;;;;32.02;22.63;100370.44;4421966;28;33692;-93
2021/06/03 13:55:38;;;;;;;;;;;;;;;32.47;22.60;100373.28;4028559;33;37088;-96
2021/06/03 14:01:51;;;;;;;;;;;;;;;32.99;21.87;100363.50;4552173;27;20017;-94
2021/06/03 14:08:04;;;;;;;;;;;;;;;32.41;25.41;100363.34;4334335;27;33223;-90
2021/06/03 14:10:55;;;;;;;;;;;;;;;31.90;24.79;100367.38;4401728;27;34817;31
2021/06/03 14:13:28;;;;;;;;;;;;;;;31.81;23.98;100362.56;4336890;28;32950;-92
2021/06/03 14:16:04;;;;;;;;;;;;;;;31.44;24.04;100364.50;4539400;28;31691;-91
2021/06/03 14:19:19;;;;;;;;;;;;;;;31.11;24.34;100375.78;4917595;27;34661;31
2021/06/03 14:22:15;;;;;;;;;;;;;;;30.76;25.66;100369.72;4622169;27;33237;31
2021/06/03 14:28:58;;;;;;;;;;;;;;;29.71;26.15;100356.94;4803701;28;19993;-93
2021/06/03 14:35:32;;;;;;;;;;;;;;;28.97;25.83;100362.91;4707762;27;19997;-93
2021/06/03 14:41:06;;;;;;;;;;;;;;;29.02;27.06;100354.47;4256898;33;33454;-96
2021/06/03 14:44:05;;;;;;;;;;;;;;;28.79;28.34;100363.63;4249883;33;35392;-96
2021/06/03 14:47:01;;;;;;;;;;;;;;;28.60;29.12;100361.63;4244420;33;32813;-90
2021/06/03 14:50:01;;;;;;;;;;;;;;;28.21;30.53;100354.16;4264080;33;33018;-96
2021/06/03 14:52:54;;;;;;;;;;;;;;;28.43;30.19;100359.25;4246628;33;34858;-90
2021/06/03 14:55:28;;;;;;;;;;;;;;;28.92;29.00;100346.25;4380779;27;34034;-89
2021/06/03 14:58:01;;;;;;;;;;;;;;;29.29;27.02;100353.06;4278912;33;33341;-89
2021/06/03 15:03:41;;;;;;;;;;;;;;;29.43;25.45;100342.03;4289205;33;20071;-90
2021/06/03 15:06:15;;;;;;;;;;;;;;;29.34;26.17;100344.66;4267864;33;35378;-89
2021/06/03 15:08:47;;;;;;;;;;;;;;;29.20;28.30;100343.69;4258085;33;34426;-90
2021/06/03 15:11:25;;;;;;;;;;;;;;;28.84;27.14;100349.69;4267843;33;33413;-96
2021/06/03 15:14:44;;;;;;;;;;;;;;;28.38;28.37;100347.34;4745735;27;35437;-94
2021/06/03 15:17:35;;;;;;;;;;;;;;;28.23;27.79;100342.75;4265240;33;34727;-96
2021/06/03 15:20:40;;;;;;;;;;;;;;;28.11;29.37;100348.69;4257658;33;28745;-96
2021/06/03 15:23:15;;;;;;;;;;;;;;;27.75;27.42;100343.38;4308848;27;33100;-89
2021/06/03 15:25:49;;;;;;;;;;;;;;;27.63;29.73;100344.53;4284582;33;31683;-90
2021/06/03 15:28:22;;;;;;;;;;;;;;;27.77;30.58;100343.91;4275543;33;34054;-90
2021/06/03 15:30:55;;;;;;;;;;;;;;;28.19;27.50;100342.53;4277279;33;34620;-91
2021/06/03 15:33:27;;;;;;;;;;;;;;;28.40;26.24;100345.09;4286422;33;33090;-91
2021/06/03 15:36:05;;;;;;;;;;;;;;;28.71;27.61;100340.09;4278286;33;34540;-96
2021/06/03 15:39:13;;;;;;;;;;;;;;;29.00;27.36;100340.03;4221319;33;34255;-90
2021/06/03 15:42:15;;;;;;;;;;;;;;;29.21;26.14;100343.44;4378801;28;34403;-96
2021/06/03 15:44:52;;;;;;;;;;;;;;;29.29;27.39;100335.56;4326564;28;32644;-89
2021/06/03 15:50:57;;;;;;;;;;;;;;;29.03;23.99;100331.09;4964205;27;20003;31
2021/06/03 15:54:08;;;;;;;;;;;;;;;29.91;25.35;100332.72;4861273;28;34425;31
2021/06/03 15:56:45;;;;;;;;;;;;;;;30.22;24.69;100329.44;4248150;33;32525;-93
2021/06/03 15:59:48;;;;;;;;;;;;;;;29.96;24.34;100335.44;4236519;33;35049;-96
2021/06/03 16:02:38;;;;;;;;;;;;;;;29.92;23.35;100334.38;4220862;33;36386;-93
2021/06/03 16:05:14;;;;;;;;;;;;;;;30.15;23.63;100329.84;4213608;33;33272;-96
2021/06/03 16:08:06;;;;;;;;;;;;;;;30.01;23.22;100328.94;4212476;33;35031;-91
2021/06/03 16:10:43;;;;;;;;;;;;;;;30.13;22.07;100331.25;4193858;33;35155;-92
2021/06/03 16:13:18;;;;;;;;;;;;;;;30.06;24.52;100331.63;4207847;33;34353;-92
2021/06/03 16:15:51;;;;;;;;;;;;;;;29.41;23.43;100333.97;4221513;33;34423;-91
2021/06/03 16:18:27;;;;;;;;;;;;;;;29.80;24.69;100329.22;4224197;33;32585;-92
2021/06/03 16:21:00;;;;;;;;;;;;;;;29.85;26.41;100336.72;4223924;33;34714;-93
2021/06/03 16:23:34;;;;;;;;;;;;;;;29.63;26.15;100335.34;4208047;33;33534;-92
2021/06/03 16:26:07;;;;;;;;;;;;;;;29.82;25.43;100337.31;4228869;33;34931;-91
2021/06/03 16:28:43;;;;;;;;;;;;;;;29.85;25.91;100343.13;4230749;33;33777;-92
2021/06/03 16:31:16;;;;;;;;;;;;;;;29.69;25.04;100338.91;4216186;33;33392;-91
2021/06/03 16:33:50;;;;;;;;;;;;;;;29.80;24.88;100331.19;4235493;33;35019;-90
2021/06/03 16:36:27;;;;;;;;;;;;;;;29.57;25.28;100336.56;4241975;33;34579;-91
2021/06/03 16:39:01;;;;;;;;;;;;;;;29.71;25.11;100337.44;4237733;33;33707;-91
2021/06/03 16:41:35;;;;;;;;;;;;;;;29.46;25.47;100340.59;4208225;33;34719;-91
2021/06/03 16:44:08;;;;;;;;;;;;;;;29.27;25.61;100340.56;4225043;33;34998;-92
2021/06/03 16:46:41;;;;;;;;;;;;;;;29.59;26.27;100331.50;4242300;33;35651;-90
2021/06/03 16:49:14;;;;;;;;;;;;;;;29.18;25.87;100345.97;4243051;33;33998;-92
2021/06/03 16:51:47;;;;;;;;;;;;;;;28.93;27.87;100344.31;4218900;33;34923;-93
2021/06/03 16:54:20;;;;;;;;;;;;;;;29.04;27.85;100335.56;4235494;33;33645;-92
2021/06/03 16:56:53;;;;;;;;;;;;;;;30.26;25.52;100330.47;4232505;33;32853;-90
2021/06/03 16:59:26;;;;;;;;;;;;;;;32.13;22.64;100334.72;4227609;33;33190;-91
2021/06/03 17:02:01;;;;;;;;;;;;;;;33.16;20.77;100337.53;4235086;33;34304;-92
2021/06/03 17:04:33;;;;;;;;;;;;;;;34.30;20.30;100336.47;4236970;33;33949;-90
2021/06/03 17:07:07;;;;;;;;;;;;;;;35.04;18.98;100336.38;4235363;33;33908;-91
2021/06/03 17:09:40;;;;;;;;;;;;;;;35.17;19.35;100334.50;4237713;33;32542;-92
2021/06/03 17:12:13;;;;;;;;;;;;;;;34.07;20.43;100335.00;4240490;33;34137;-90
2021/06/03 17:14:45;;;;;;;;;;;;;;;32.81;23.21;100346.63;4225953;33;34399;-91
2021/06/03 17:30:53;;;;;;;;;;;;;;;28.61;25.93;100360.50;4755077;27;20675;-96
2021/06/03 17:33:51;;;;;;;;;;;;;;;28.07;28.58;100359.56;4277235;33;20001;-96
2021/06/03 17:40:17;;;;;;;;;;;;;;;26.86;31.60;100364.28;4327894;28;20000;-96
2021/06/03 17:43:03;;;;;;;;;;;;;;;26.56;34.59;100367.94;4262285;33;33848;-96
2021/06/03 17:45:48;;;;;;;;;;;;;;;26.50;35.65;100366.25;4258576;33;33694;-89
2021/06/03 17:48:22;;;;;;;;;;;;;;;26.08;37.62;100376.53;4260088;33;34286;-89
2021/06/03 17:50:54;;;;;;;;;;;;;;;26.06;38.11;100373.19;4252483;33;33240;-91
2021/06/03 17:53:28;;;;;;;;;;;;;;;25.99;38.91;100376.22;4230661;33;36417;-89
2021/06/03 17:56:02;;;;;;;;;;;;;;;25.68;39.82;100375.31;4229309;33;33400;-91
2021/06/03 17:58:37;;;;;;;;;;;;;;;25.41;40.61;100376.34;4256395;33;34749;-91
2021/06/03 18:01:10;;;;;;;;;;;;;;;25.27;41.03;100372.34;4246227;33;33938;-91